ADDS METAR Data INFO
IDs: Format: Raw Decoded Include TAF

Data at: 0318 UTC 20 Jul 2018

KLAA 200253Z AUTO A2992 RMK AO2 SLPNO 53006 PWINO $
KLAA 200153Z AUTO A2991 RMK AO2 SLPNO PWINO $
KLAA 200053Z AUTO A2989 RMK AO2 SLPNO PWINO $
KLAA 192353Z AUTO A2990 RMK AO2 SLPNO PWINO $
KLAA 192253Z AUTO 36007G14KT 330V040 10SM CLR 40/05 A2991 RMK AO2 SLP065 T04000050
KLAA 192153Z AUTO 01012G20KT 10SM CLR 41/06 A2992 RMK AO2 SLP064 T04060061
KLAA 192053Z AUTO 35009G17KT 10SM CLR 39/09 A2993 RMK AO2 SLP068 T03940089 56016
KLAA 191953Z AUTO 03007KT 360V080 10SM CLR 38/16 A2995 RMK AO2 SLP076 T03780156
KLAA 191853Z AUTO VRB05KT 10SM CLR 36/17 A2996 RMK AO2 SLP081 T03610167
KLAA 191753Z AUTO 10SM CLR 34/17 A2998 RMK AO2 SLP089 T03440172 10350 20200 58006
KLAA 191653Z AUTO 04010KT 10SM CLR 32/19 A3000 RMK AO2 SLP096 T03220189
KLAA 191553Z AUTO 33007KT 10SM CLR 31/18 A2999 RMK AO2 SLP094 T03060183
KLAA 191453Z AUTO 34004KT 10SM CLR 27/19 A3000 RMK AO2 SLP100 T02720189 53006
KLAA 191353Z AUTO 04004KT 10SM CLR 24/19 A2999 RMK AO2 SLP096 T02390189
KLAA 191253Z AUTO 10SM CLR 22/19 A2998 RMK AO2 SLP090 T02220189
KLAA 191153Z AUTO 08006KT 10SM CLR 20/18 A2998 RMK AO2 SLP093 T02000178 10261 20200 53002
KLAA 191053Z AUTO 04003KT 10SM CLR 21/18 A2998 RMK AO2 SLP092 T02110178
KLAA 190953Z AUTO 01005KT 10SM CLR 23/18 A2998 RMK AO2 SLP089 T02330178
KLAA 190853Z AUTO 22006KT 10SM CLR 24/18 A2998 RMK AO2 SLP089 T02440178 58001
KLAA 190753Z AUTO 19009KT 10SM CLR 24/18 A2998 RMK AO2 SLP089 T02440178
KLAA 190653Z AUTO 17014KT 10SM CLR 26/17 A2998 RMK AO2 SLP092 T02560172 403610183
KLAA 190553Z AUTO 17013KT 10SM CLR 26/17 A2998 RMK AO2 SLP092 T02610167 10356 20261 50004
KLAA 190453Z AUTO 17010KT 10SM CLR 27/16 A2998 RMK AO2 SLP094 T02670161
KLAA 190353Z AUTO 16012KT 10SM CLR 27/17 A2998 RMK AO2 SLP094 T02720167
KLAA 190253Z AUTO 14009KT 10SM CLR 28/16 A2997 RMK AO2 SLP090 T02780161 53001
KLAA 190153Z AUTO 14008KT 10SM CLR 31/14 A2996 RMK AO2 SLP089 T03110144
KLAA 190053Z AUTO 14010KT 10SM CLR 34/14 A2996 RMK AO2 SLP086 T03390144
KLAA 182353Z AUTO VRB05KT 10SM CLR 36/12 A2996 RMK AO2 SLP088 T03560122 10361 20300 56017
KLAA 182253Z AUTO VRB03KT 10SM CLR 34/13 A2998 RMK AO2 SLP094 T03440133
KLAA 182153Z AUTO 13004G15KT 10SM CLR 34/14 A3000 RMK AO2 SLP102 T03440139
KLAA 182053Z AUTO 02007KT 350V060 10SM CLR 34/14 A3002 RMK AO2 SLP109 T03440144 56011
KLAA 181953Z AUTO 06005KT 10SM CLR 33/15 A3003 RMK AO2 SLP114 T03280150
KLAA 181853Z AUTO VRB04KT 10SM CLR 32/16 A3004 RMK AO2 SLP119 T03170156
KLAA 181753Z AUTO 04004KT 10SM CLR 30/18 A3006 RMK AO2 SLP126 T03000178 10300 20183 58006
KLAA 181653Z AUTO 23004KT 10SM CLR 28/17 A3007 RMK AO2 SLP130 T02830172
KLAA 181553Z AUTO 09003KT 10SM CLR 26/17 A3008 RMK AO2 SLP140 T02560167